SashaShmel (mil_avia) wrote,
SashaShmel
mil_avia

Category:

Ещё один эшелонинг "Эмиратских"

Недавно уже пробовал из окна https://mil-avia.livejournal.com/485729.html. Сегодня опять отличная погода (!) и ещё одна попытка из окна.

Заглянул во Флайтрадар, а там летит этот же рейс в Данию. Только А380 уже  другой .

Airbus A380 EMIRATES A6-EUZ (прошлый раз был A6-EOR) | Flight EK151/UAE151 DXB-CPH


METAR UMKK :  211100Z 10003MPS 050V120 9999 BKN027 M04/M06 Q1013 R24/19//60 NOSIG RMK QFE759/1012
Tags: a380, emirates, калининград, эшелонинг
Subscribe

Posts from This Journal “эшелонинг” Tag

  • Post a new comment

    Error

    Anonymous comments are disabled in this journal

    default userpic

    Your reply will be screened

    Your IP address will be recorded 

  • 2 comments